createdAt,value
2023-12-05T00:02:18.002Z,111.10
2023-12-05T00:06:21.405Z,120.00
2023-12-05T00:10:24.744Z,100.40
2023-12-05T00:14:28.112Z,111.80
2023-12-05T00:18:31.512Z,102.70
2023-12-05T00:22:34.887Z,113.80
2023-12-05T00:26:38.296Z,103.80
2023-12-05T00:30:42.017Z,97.10
2023-12-05T00:34:49.445Z,88.80
2023-12-05T00:38:52.938Z,99.10
2023-12-05T00:42:58.735Z,86.80
2023-12-05T00:47:04.845Z,97.70
2023-12-05T00:51:08.658Z,112.50
2023-12-05T00:55:12.057Z,90.60
2023-12-05T00:59:15.425Z,100.20
2023-12-05T01:03:20.846Z,98.20
2023-12-05T01:07:24.645Z,80.10
2023-12-05T01:11:28.016Z,81.20
2023-12-05T01:15:31.342Z,81.60
2023-12-05T01:19:36.610Z,86.80
2023-12-05T01:23:39.906Z,83.10
2023-12-05T01:27:43.291Z,82.10
2023-12-05T01:31:46.628Z,73.80
2023-12-05T01:35:51.420Z,82.30
2023-12-05T01:39:54.913Z,78.70
2023-12-05T01:43:58.770Z,70.80
2023-12-05T01:48:03.628Z,72.10
2023-12-05T01:52:07.087Z,76.20
2023-12-05T01:56:12.752Z,70.20
2023-12-05T02:00:17.627Z,66.40
2023-12-05T02:04:22.658Z,69.30
2023-12-05T02:08:29.439Z,65.10
2023-12-05T02:12:32.825Z,61.00
2023-12-05T02:16:46.885Z,74.30
2023-12-05T02:21:01.412Z,67.50
2023-12-05T02:25:22.230Z,60.70
2023-12-05T02:29:25.937Z,57.50
2023-12-05T02:33:29.541Z,68.30
2023-12-05T02:37:44.839Z,61.60
2023-12-05T02:41:54.574Z,60.90
2023-12-05T02:46:08.827Z,56.80
2023-12-05T02:50:13.815Z,62.60
2023-12-05T02:54:17.341Z,61.60
2023-12-05T02:58:20.723Z,60.50
2023-12-05T03:02:24.141Z,61.90
2023-12-05T03:06:28.821Z,60.30
2023-12-05T03:10:33.241Z,63.30
2023-12-05T03:14:36.539Z,59.80
2023-12-05T03:18:40.230Z,53.70
2023-12-05T03:22:44.201Z,65.00
2023-12-05T03:26:48.020Z,56.10
2023-12-05T03:30:51.436Z,61.30
2023-12-05T03:34:54.864Z,48.80
2023-12-05T03:38:58.841Z,55.70
2023-12-05T03:43:02.234Z,57.70
2023-12-05T03:47:05.660Z,61.10
2023-12-05T03:51:08.989Z,58.10
2023-12-05T03:55:12.456Z,57.50
2023-12-05T03:59:15.746Z,55.80
2023-12-05T04:03:20.725Z,50.40
2023-12-05T04:07:24.300Z,53.00
2023-12-05T04:11:35.263Z,55.20
2023-12-05T04:15:40.604Z,45.80
2023-12-05T04:19:44.138Z,56.80
2023-12-05T04:23:48.084Z,54.50
2023-12-05T04:27:51.556Z,62.30
2023-12-05T04:31:54.977Z,58.70
2023-12-05T04:35:59.090Z,52.20
2023-12-05T04:40:05.379Z,61.10
2023-12-05T04:44:09.253Z,60.40
2023-12-05T04:48:12.726Z,47.90
2023-12-05T04:52:16.633Z,54.10
2023-12-05T04:56:20.035Z,56.90
2023-12-05T05:00:23.384Z,57.30
2023-12-05T05:04:26.915Z,58.90
2023-12-05T05:08:30.311Z,46.70
2023-12-05T05:12:33.702Z,57.10
2023-12-05T05:16:37.066Z,49.40
2023-12-05T05:20:40.528Z,52.60
2023-12-05T05:24:44.012Z,55.70
2023-12-05T05:28:47.504Z,61.00
2023-12-05T05:32:50.900Z,51.10
2023-12-05T05:36:54.329Z,58.60
2023-12-05T05:41:08.913Z,57.20
2023-12-05T05:45:13.326Z,58.60
2023-12-05T05:49:16.758Z,47.70
2023-12-05T05:53:20.178Z,50.80
2023-12-05T05:57:23.630Z,49.60
2023-12-05T06:01:26.973Z,47.80
2023-12-05T06:05:30.745Z,45.00
2023-12-05T06:09:34.854Z,47.60
2023-12-05T06:13:38.207Z,55.10
2023-12-05T06:17:41.856Z,59.00
2023-12-05T06:21:45.384Z,45.00
2023-12-05T06:25:48.797Z,42.10
2023-12-05T06:29:52.157Z,50.10
2023-12-05T06:33:55.606Z,54.60
2023-12-05T06:37:58.892Z,53.20
2023-12-05T06:42:02.166Z,53.20
2023-12-05T06:46:06.098Z,53.80
2023-12-05T06:50:12.918Z,42.70
2023-12-05T06:54:16.689Z,50.60
2023-12-05T06:58:19.998Z,56.90
2023-12-05T07:02:23.345Z,49.20
2023-12-05T07:06:26.932Z,55.60
2023-12-05T07:10:30.454Z,55.70
2023-12-05T07:14:37.178Z,49.30
2023-12-05T07:18:41.802Z,51.10
2023-12-05T07:22:45.711Z,56.40
2023-12-05T07:26:49.929Z,46.90
2023-12-05T07:30:55.171Z,47.70
2023-12-05T07:34:59.278Z,47.00
2023-12-05T07:39:05.162Z,57.10
2023-12-05T07:43:08.819Z,51.70
2023-12-05T07:47:13.460Z,51.00
2023-12-05T07:51:19.493Z,53.40
2023-12-05T07:55:23.871Z,52.00
2023-12-05T07:59:27.222Z,54.50
2023-12-05T08:03:31.665Z,53.50
2023-12-05T08:07:35.173Z,45.70
2023-12-05T08:11:39.608Z,52.40
2023-12-05T08:15:43.257Z,49.30
2023-12-05T08:19:46.703Z,43.40
2023-12-05T08:23:50.063Z,48.80
2023-12-05T08:27:53.461Z,44.60
2023-12-05T08:31:57.146Z,40.50
2023-12-05T08:36:00.453Z,37.10
2023-12-05T08:40:04.220Z,38.20
2023-12-05T08:44:07.700Z,44.90
2023-12-05T08:48:11.691Z,43.50
2023-12-05T08:52:15.320Z,46.10
2023-12-05T08:56:19.051Z,41.10
2023-12-05T09:00:22.726Z,44.00
2023-12-05T09:04:26.258Z,45.80
2023-12-05T09:08:30.655Z,38.60
2023-12-05T09:12:34.223Z,46.20
2023-12-05T09:16:37.623Z,50.10
2023-12-05T09:20:42.068Z,45.20
2023-12-05T09:24:45.646Z,47.20
2023-12-05T09:28:49.056Z,50.50
2023-12-05T09:32:54.132Z,51.70
2023-12-05T09:36:58.019Z,60.50
2023-12-05T09:41:04.053Z,54.80
2023-12-05T09:45:15.256Z,56.00
2023-12-05T09:49:23.669Z,48.80
2023-12-05T09:53:29.407Z,41.00
2023-12-05T09:57:33.519Z,45.50
2023-12-05T10:01:37.710Z,42.00
2023-12-05T10:05:43.874Z,47.80
2023-12-05T10:09:48.874Z,43.60
2023-12-05T10:13:52.325Z,44.90
2023-12-05T10:17:56.253Z,52.40
2023-12-05T10:22:01.168Z,43.20
2023-12-05T10:26:04.709Z,49.20
2023-12-05T10:30:08.516Z,56.00
2023-12-05T10:34:11.926Z,54.50
2023-12-05T10:38:20.796Z,55.00
2023-12-05T10:46:37.990Z,59.60
2023-12-05T10:50:42.465Z,59.70
2023-12-05T10:54:45.932Z,52.30
2023-12-05T10:58:50.454Z,54.20
2023-12-05T11:02:55.261Z,47.10
2023-12-05T11:06:58.682Z,50.10
2023-12-05T11:11:06.528Z,53.10
2023-12-05T11:15:11.232Z,52.00
2023-12-05T11:19:56.333Z,58.20
2023-12-05T11:24:26.589Z,62.60
2023-12-05T11:28:51.980Z,47.90
2023-12-05T11:33:19.640Z,62.10
2023-12-05T11:37:53.903Z,46.80
2023-12-05T11:42:11.851Z,89.30
2023-12-05T11:46:17.883Z,90.70
2023-12-05T11:50:21.824Z,144.80
2023-12-05T11:54:33.304Z,106.90
2023-12-05T11:58:36.759Z,225.00
2023-12-05T12:02:48.986Z,172.00
2023-12-05T12:06:52.438Z,108.30
2023-12-05T12:10:57.443Z,112.00
2023-12-05T12:15:00.977Z,82.80
2023-12-05T12:19:05.282Z,99.40
2023-12-05T12:23:08.986Z,99.50
2023-12-05T12:27:12.903Z,65.20
2023-12-05T12:31:27.643Z,48.70
2023-12-05T12:35:32.578Z,47.40
2023-12-05T12:39:37.584Z,45.60
2023-12-05T12:43:44.164Z,49.20
2023-12-05T12:47:47.683Z,48.60
2023-12-05T12:51:51.277Z,46.70
2023-12-05T12:55:54.974Z,47.80
2023-12-05T13:00:29.864Z,53.20
2023-12-05T13:04:21.903Z,46.90
2023-12-05T13:08:25.525Z,49.20
2023-12-05T13:12:29.062Z,57.50
2023-12-05T13:16:32.393Z,45.00
2023-12-05T13:20:50.791Z,50.80
2023-12-05T13:24:54.180Z,43.40
2023-12-05T13:28:57.711Z,53.90
2023-12-05T13:33:01.129Z,51.40
2023-12-05T13:37:04.667Z,69.70
2023-12-05T13:41:08.046Z,50.00
2023-12-05T13:45:13.022Z,50.20
2023-12-05T13:49:18.591Z,40.20
2023-12-05T13:53:24.819Z,54.30
2023-12-05T13:57:28.508Z,61.10
2023-12-05T14:01:31.884Z,48.40
2023-12-05T14:05:35.346Z,65.00
2023-12-05T14:09:38.861Z,65.60
2023-12-05T14:13:42.233Z,65.10
2023-12-05T14:17:45.529Z,55.50
2023-12-05T14:21:50.025Z,55.10
2023-12-05T14:25:53.492Z,66.80
2023-12-05T14:29:56.930Z,62.50
2023-12-05T14:34:00.332Z,72.70
2023-12-05T14:38:03.710Z,67.20
2023-12-05T14:42:07.083Z,55.90
2023-12-05T14:46:10.479Z,67.80
2023-12-05T14:50:14.856Z,66.00
2023-12-05T14:54:18.165Z,72.80
2023-12-05T14:58:22.278Z,67.80
2023-12-05T15:02:25.783Z,71.70
2023-12-05T15:06:29.273Z,58.20
2023-12-05T15:10:32.599Z,49.90
2023-12-05T15:14:36.819Z,59.50
2023-12-05T15:18:40.248Z,61.20
2023-12-05T15:22:44.096Z,55.40
2023-12-05T15:26:48.637Z,69.10
2023-12-05T15:30:52.803Z,67.70
2023-12-05T15:34:56.137Z,71.70
2023-12-05T15:38:59.536Z,63.70
2023-12-05T15:43:03.042Z,66.10
2023-12-05T15:47:08.624Z,69.90
2023-12-05T15:51:12.036Z,66.30
2023-12-05T15:55:15.858Z,61.40
2023-12-05T15:59:21.006Z,66.30
2023-12-05T16:03:24.475Z,80.50
2023-12-05T16:07:28.293Z,82.80
2023-12-05T16:11:32.130Z,90.70
2023-12-05T16:15:35.421Z,100.90
2023-12-05T16:19:39.886Z,163.60
2023-12-05T16:23:43.553Z,178.40
2023-12-05T16:27:46.858Z,209.40
2023-12-05T16:31:50.145Z,128.10
2023-12-05T16:35:53.486Z,134.80
2023-12-05T16:39:57.404Z,81.20
2023-12-05T16:44:00.923Z,121.90
2023-12-05T16:48:04.560Z,176.90
2023-12-05T16:52:08.386Z,120.10
2023-12-05T16:56:12.574Z,85.30
2023-12-05T17:00:16.217Z,114.20
2023-12-05T17:04:19.738Z,124.70
2023-12-05T17:08:23.288Z,79.50
2023-12-05T17:12:26.657Z,84.20
2023-12-05T17:16:30.013Z,167.50
2023-12-05T17:20:33.846Z,132.70
2023-12-05T17:24:37.372Z,147.10
2023-12-05T17:28:40.756Z,123.80
2023-12-05T17:32:44.512Z,136.50
2023-12-05T17:36:47.942Z,171.70
2023-12-05T17:40:51.805Z,216.60
2023-12-05T17:44:55.487Z,139.00
2023-12-05T17:49:02.345Z,127.60
2023-12-05T17:53:05.867Z,119.60
2023-12-05T17:57:11.855Z,115.80
2023-12-05T18:01:15.242Z,99.30
2023-12-05T18:05:18.947Z,105.00
2023-12-05T18:09:25.019Z,105.50
2023-12-05T18:13:29.885Z,102.00
2023-12-05T18:17:33.456Z,115.20
2023-12-05T18:21:36.931Z,88.50
2023-12-05T18:25:41.280Z,83.90
2023-12-05T18:29:45.795Z,89.80
2023-12-05T18:33:51.072Z,87.60
2023-12-05T18:37:54.581Z,91.10
2023-12-05T18:41:59.190Z,95.60
2023-12-05T18:46:04.657Z,104.30
2023-12-05T18:50:08.646Z,102.40
2023-12-05T18:54:12.092Z,99.50
2023-12-05T18:58:15.499Z,101.00
2023-12-05T19:02:18.899Z,101.80
2023-12-05T19:06:22.699Z,107.10
2023-12-05T19:10:26.213Z,105.50
2023-12-05T19:14:30.214Z,103.30
2023-12-05T19:18:34.235Z,101.10
2023-12-05T19:22:37.835Z,88.60
2023-12-05T19:26:41.384Z,102.00
2023-12-05T19:30:48.330Z,102.30
2023-12-05T19:34:52.418Z,91.90
2023-12-05T19:38:55.840Z,98.10
2023-12-05T19:43:00.256Z,106.70
2023-12-05T19:47:03.708Z,100.80
2023-12-05T19:51:07.167Z,84.10
2023-12-05T19:55:10.621Z,101.10
2023-12-05T19:59:15.198Z,97.30
2023-12-05T20:03:20.185Z,101.10
2023-12-05T20:07:23.867Z,113.20
2023-12-05T20:11:27.159Z,86.20
2023-12-05T20:15:32.053Z,91.00
2023-12-05T20:19:35.610Z,104.20
2023-12-05T20:23:38.973Z,91.90
2023-12-05T20:27:43.822Z,98.90
2023-12-05T20:31:47.132Z,98.60
2023-12-05T20:35:50.552Z,105.20
2023-12-05T20:39:53.924Z,95.20
2023-12-05T20:43:57.311Z,103.10
2023-12-05T20:48:04.562Z,91.30
2023-12-05T20:52:08.111Z,105.70
2023-12-05T20:56:11.507Z,93.80
2023-12-05T21:00:15.056Z,96.30
2023-12-05T21:04:19.496Z,99.00
2023-12-05T21:08:23.058Z,100.00
2023-12-05T21:12:26.341Z,97.40
2023-12-05T21:16:29.633Z,80.70
2023-12-05T21:20:33.141Z,78.30
2023-12-05T21:24:37.591Z,101.30
2023-12-05T21:28:41.669Z,87.40
2023-12-05T21:32:44.983Z,83.20
2023-12-05T21:36:49.260Z,102.10
2023-12-05T21:40:52.772Z,80.90
2023-12-05T21:44:56.097Z,102.10
2023-12-05T21:49:02.665Z,93.60
2023-12-05T21:53:06.143Z,89.00
2023-12-05T21:57:09.568Z,91.70
2023-12-05T22:01:14.733Z,84.00
2023-12-05T22:05:19.848Z,93.10
2023-12-05T22:09:23.243Z,95.20
2023-12-05T22:13:30.914Z,97.40
2023-12-05T22:17:35.234Z,98.30
2023-12-05T22:21:43.039Z,112.20
2023-12-05T22:25:50.001Z,85.50
2023-12-05T22:29:55.984Z,105.00
2023-12-05T22:34:00.117Z,98.60
2023-12-05T22:38:03.482Z,92.30
2023-12-05T22:42:06.866Z,89.40
2023-12-05T22:46:11.690Z,99.50
2023-12-05T22:50:15.343Z,92.20
2023-12-05T22:54:18.924Z,94.50
2023-12-05T22:58:22.214Z,108.00
2023-12-05T23:02:25.608Z,100.20
2023-12-05T23:06:28.932Z,96.10
2023-12-05T23:10:34.288Z,88.10
2023-12-05T23:14:37.863Z,96.70
2023-12-05T23:18:41.139Z,96.50
2023-12-05T23:22:45.195Z,81.10
2023-12-05T23:26:48.436Z,95.10
2023-12-05T23:30:51.826Z,85.20
2023-12-05T23:34:55.409Z,96.40
2023-12-05T23:38:58.742Z,87.50
2023-12-05T23:43:02.180Z,85.00
2023-12-05T23:47:05.737Z,100.20
2023-12-05T23:51:09.068Z,90.20
2023-12-05T23:55:12.832Z,78.00
2023-12-05T23:59:16.257Z,94.90
